createdAt,value
2022-10-26T00:01:17.742Z,11.00
2022-10-26T00:03:46.580Z,11.00
2022-10-26T00:06:20.635Z,11.03
2022-10-26T00:08:49.871Z,11.04
2022-10-26T00:11:19.366Z,11.03
2022-10-26T00:13:48.476Z,11.04
2022-10-26T00:16:27.662Z,11.03
2022-10-26T00:18:55.228Z,11.04
2022-10-26T00:21:22.554Z,11.07
2022-10-26T00:23:49.696Z,11.08
2022-10-26T00:26:16.870Z,11.10
2022-10-26T00:28:44.091Z,11.12
2022-10-26T00:31:16.618Z,11.12
2022-10-26T00:33:44.253Z,11.11
2022-10-26T00:36:14.481Z,11.08
2022-10-26T00:38:46.085Z,11.09
2022-10-26T00:41:27.485Z,11.10
2022-10-26T00:43:55.719Z,11.11
2022-10-26T00:46:38.402Z,11.12
2022-10-26T00:51:53.955Z,11.17
2022-10-26T00:54:21.849Z,11.22
2022-10-26T00:56:54.946Z,11.22
2022-10-26T00:59:23.253Z,11.24
2022-10-26T01:01:52.827Z,11.23
2022-10-26T01:04:21.078Z,11.24
2022-10-26T01:06:49.899Z,11.25
2022-10-26T01:09:19.177Z,11.27
2022-10-26T01:11:46.770Z,11.32
2022-10-26T01:14:18.905Z,11.35
2022-10-26T01:17:48.195Z,11.37
2022-10-26T01:21:13.631Z,11.36
2022-10-26T01:24:09.746Z,11.38
2022-10-26T01:27:10.151Z,11.39
2022-10-26T01:30:00.966Z,11.39
2022-10-26T01:33:09.406Z,11.41
2022-10-26T01:39:29.928Z,11.33
2022-10-26T01:42:02.929Z,11.31
2022-10-26T01:44:45.550Z,11.31
2022-10-26T01:47:18.507Z,11.32
2022-10-26T01:49:58.142Z,11.30
2022-10-26T01:52:26.622Z,11.29
2022-10-26T01:55:24.430Z,11.27
2022-10-26T01:57:54.455Z,11.26
2022-10-26T02:00:21.773Z,11.24
2022-10-26T02:03:19.264Z,11.26
2022-10-26T02:06:17.197Z,11.23
2022-10-26T02:09:13.363Z,11.22
2022-10-26T02:11:50.533Z,11.24
2022-10-26T02:14:51.284Z,11.22
2022-10-26T02:17:59.034Z,11.23
2022-10-26T02:20:36.117Z,11.25
2022-10-26T02:23:08.078Z,11.23
2022-10-26T02:25:47.653Z,11.22
2022-10-26T02:28:28.850Z,11.25
2022-10-26T02:31:01.046Z,11.25
2022-10-26T02:33:36.998Z,11.26
2022-10-26T02:36:11.587Z,11.25
2022-10-26T02:38:42.982Z,11.25
2022-10-26T02:41:14.126Z,11.25
2022-10-26T02:43:59.117Z,11.25
2022-10-26T02:46:28.839Z,11.25
2022-10-26T02:48:57.264Z,11.25
2022-10-26T02:51:51.349Z,11.27
2022-10-26T02:55:02.673Z,11.28
2022-10-26T02:57:41.737Z,11.27
2022-10-26T03:00:17.422Z,11.27
2022-10-26T03:02:54.034Z,11.24
2022-10-26T03:05:26.916Z,11.25
2022-10-26T03:07:56.169Z,11.22
2022-10-26T03:10:23.813Z,11.22
2022-10-26T03:12:52.200Z,11.21
2022-10-26T03:15:19.793Z,11.19
2022-10-26T03:17:47.297Z,11.19
2022-10-26T03:20:14.864Z,11.21
2022-10-26T03:22:42.142Z,11.19
2022-10-26T03:25:09.938Z,11.17
2022-10-26T03:27:37.900Z,11.16
2022-10-26T03:30:06.373Z,11.17
2022-10-26T03:32:33.600Z,11.22
2022-10-26T03:35:00.825Z,11.20
2022-10-26T03:37:28.144Z,11.21
2022-10-26T03:39:55.318Z,11.18
2022-10-26T03:42:22.524Z,11.20
2022-10-26T03:44:49.687Z,11.22
2022-10-26T03:47:16.861Z,11.21
2022-10-26T03:49:44.131Z,11.23
2022-10-26T03:52:11.441Z,11.24
2022-10-26T03:54:38.695Z,11.25
2022-10-26T03:57:05.882Z,11.25
2022-10-26T03:59:33.074Z,11.26
2022-10-26T04:02:00.314Z,11.26
2022-10-26T04:04:27.650Z,11.27
2022-10-26T04:06:54.963Z,11.29
2022-10-26T04:09:22.121Z,11.28
2022-10-26T04:11:49.312Z,11.31
2022-10-26T04:14:16.481Z,11.29
2022-10-26T04:16:43.844Z,11.28
2022-10-26T04:19:11.129Z,11.25
2022-10-26T04:21:38.351Z,11.24
2022-10-26T04:24:06.177Z,11.25
2022-10-26T04:26:33.316Z,11.23
2022-10-26T04:29:00.498Z,11.24
2022-10-26T04:31:27.658Z,11.25
2022-10-26T04:33:54.802Z,11.23
2022-10-26T04:36:21.994Z,11.25
2022-10-26T04:38:49.961Z,11.24
2022-10-26T04:41:17.153Z,11.29
2022-10-26T04:43:44.287Z,11.30
2022-10-26T04:46:16.689Z,11.30
2022-10-26T04:48:44.090Z,11.34
2022-10-26T04:51:11.477Z,11.37
2022-10-26T04:53:38.624Z,11.37
2022-10-26T04:56:06.276Z,11.38
2022-10-26T04:58:34.280Z,11.38
2022-10-26T05:01:03.054Z,11.44
2022-10-26T05:03:30.378Z,11.47
2022-10-26T05:06:00.808Z,11.49
2022-10-26T05:08:31.854Z,11.52
2022-10-26T05:10:59.080Z,11.55
2022-10-26T05:15:55.286Z,11.61
2022-10-26T05:18:26.301Z,11.63
2022-10-26T05:20:54.577Z,11.64
2022-10-26T05:23:22.855Z,11.67
2022-10-26T05:25:50.322Z,11.71
2022-10-26T05:28:18.980Z,11.73
2022-10-26T05:30:47.262Z,11.75
2022-10-26T05:33:15.146Z,11.78
2022-10-26T05:35:42.768Z,11.84
2022-10-26T05:38:17.146Z,11.87
2022-10-26T05:40:53.693Z,11.89
2022-10-26T05:43:24.311Z,11.90
2022-10-26T05:45:52.109Z,11.90
2022-10-26T05:48:23.025Z,11.89
2022-10-26T05:50:50.510Z,11.91
2022-10-26T05:53:17.773Z,11.91
2022-10-26T05:55:46.102Z,11.92
2022-10-26T05:58:15.654Z,11.93
2022-10-26T06:01:37.186Z,11.92
2022-10-26T06:04:43.226Z,11.94
2022-10-26T06:07:18.405Z,11.96
2022-10-26T06:09:47.499Z,11.97
2022-10-26T06:12:19.856Z,11.99
2022-10-26T06:14:48.037Z,12.00
2022-10-26T06:17:46.761Z,12.06
2022-10-26T06:20:51.546Z,12.13
2022-10-26T06:23:59.802Z,12.18
2022-10-26T06:26:43.586Z,12.17
2022-10-26T06:30:07.037Z,12.17
2022-10-26T06:32:34.987Z,12.18
2022-10-26T06:35:48.575Z,12.19
2022-10-26T06:38:21.590Z,12.24
2022-10-26T06:40:55.350Z,12.25
2022-10-26T06:43:31.585Z,12.28
2022-10-26T06:46:26.811Z,12.29
2022-10-26T06:49:06.074Z,12.30
2022-10-26T06:52:11.785Z,12.27
2022-10-26T06:54:51.532Z,12.26
2022-10-26T06:57:23.368Z,12.34
2022-10-26T07:00:08.358Z,12.38
2022-10-26T07:02:35.805Z,12.39
2022-10-26T07:05:03.379Z,12.41
2022-10-26T07:07:32.054Z,12.40
2022-10-26T07:10:02.288Z,12.43
2022-10-26T07:12:32.211Z,12.48
2022-10-26T07:15:00.810Z,12.50
2022-10-26T07:17:28.929Z,12.46
2022-10-26T07:19:57.022Z,12.47
2022-10-26T07:22:25.246Z,12.51
2022-10-26T07:24:57.061Z,12.52
2022-10-26T07:27:26.512Z,12.57
2022-10-26T07:29:56.499Z,12.57
2022-10-26T07:32:24.076Z,12.57
2022-10-26T07:34:51.354Z,12.58
2022-10-26T07:37:21.064Z,12.59
2022-10-26T07:39:50.852Z,12.61
2022-10-26T07:42:18.211Z,12.65
2022-10-26T07:44:45.596Z,12.69
2022-10-26T07:47:15.657Z,12.73
2022-10-26T07:49:42.859Z,12.76
2022-10-26T07:52:11.050Z,12.79
2022-10-26T07:54:38.319Z,12.80
2022-10-26T07:59:37.638Z,12.95
2022-10-26T08:02:04.871Z,12.97
2022-10-26T08:04:32.121Z,13.01
2022-10-26T08:07:01.406Z,13.05
2022-10-26T08:09:28.576Z,13.15
2022-10-26T08:11:55.798Z,13.24
2022-10-26T08:14:22.999Z,13.39
2022-10-26T08:16:52.501Z,13.50
2022-10-26T08:19:23.378Z,13.59
2022-10-26T08:21:50.656Z,13.68
2022-10-26T08:24:17.809Z,13.78
2022-10-26T08:26:46.238Z,13.90
2022-10-26T08:29:13.466Z,13.96
2022-10-26T08:31:40.778Z,14.02
2022-10-26T08:34:08.765Z,14.09
2022-10-26T08:36:36.061Z,14.14
2022-10-26T08:39:03.273Z,14.24
2022-10-26T08:41:53.468Z,14.28
2022-10-26T08:44:47.900Z,14.39
2022-10-26T08:47:35.881Z,14.44
2022-10-26T08:51:03.245Z,14.48
2022-10-26T08:53:47.478Z,14.50
2022-10-26T08:56:24.121Z,14.54
2022-10-26T09:00:04.779Z,14.59
2022-10-26T09:02:32.394Z,14.67
2022-10-26T09:05:00.685Z,14.72
2022-10-26T09:08:05.149Z,14.78
2022-10-26T09:11:18.283Z,14.88
2022-10-26T09:15:00.148Z,14.94
2022-10-26T09:18:01.797Z,15.02
2022-10-26T09:21:17.341Z,15.13
2022-10-26T09:24:02.628Z,15.21
2022-10-26T09:26:49.206Z,15.29
2022-10-26T09:29:16.419Z,15.37
2022-10-26T09:31:50.912Z,15.44
2022-10-26T09:35:03.182Z,15.54
2022-10-26T09:37:40.692Z,15.60
2022-10-26T09:40:40.681Z,15.72
2022-10-26T09:43:16.672Z,15.80
2022-10-26T09:45:50.988Z,15.90
2022-10-26T09:48:53.751Z,16.03
2022-10-26T09:51:21.034Z,16.17
2022-10-26T09:53:48.873Z,16.28
2022-10-26T09:56:18.469Z,16.42
2022-10-26T09:58:59.646Z,16.55
2022-10-26T10:01:38.441Z,16.70
2022-10-26T10:04:22.684Z,16.80
2022-10-26T10:07:14.154Z,16.89
2022-10-26T10:09:41.359Z,16.98
2022-10-26T10:12:21.345Z,17.23
2022-10-26T10:18:00.259Z,18.26
2022-10-26T10:20:33.794Z,18.63
2022-10-26T10:23:06.327Z,19.07
2022-10-26T10:25:40.048Z,19.45
2022-10-26T10:28:25.590Z,19.79
2022-10-26T10:31:05.885Z,19.97
2022-10-26T10:33:42.938Z,19.97
2022-10-26T10:36:26.069Z,19.84
2022-10-26T10:38:54.197Z,19.65
2022-10-26T10:41:32.144Z,19.47
2022-10-26T10:44:25.601Z,19.33
2022-10-26T10:47:39.796Z,19.25
2022-10-26T10:50:20.613Z,19.20
2022-10-26T10:52:51.148Z,19.16
2022-10-26T10:55:25.202Z,19.15
2022-10-26T10:58:27.257Z,19.10
2022-10-26T11:00:57.588Z,19.02
2022-10-26T11:04:05.174Z,19.00
2022-10-26T11:06:38.658Z,19.02
2022-10-26T11:09:15.124Z,19.02
2022-10-26T11:12:23.472Z,19.08
2022-10-26T11:15:18.548Z,19.08
2022-10-26T11:18:36.397Z,19.07
2022-10-26T11:21:29.292Z,19.12
2022-10-26T11:24:11.435Z,19.16
2022-10-26T11:27:05.932Z,19.16
2022-10-26T11:30:15.361Z,19.11
2022-10-26T11:33:05.617Z,19.04
2022-10-26T11:35:56.520Z,18.96
2022-10-26T11:39:02.806Z,18.90
2022-10-26T11:42:30.104Z,18.83
2022-10-26T11:45:17.725Z,18.81
2022-10-26T11:48:12.258Z,18.83
2022-10-26T11:50:50.878Z,18.88
2022-10-26T11:53:30.307Z,18.95
2022-10-26T11:56:00.145Z,18.97
2022-10-26T11:58:33.973Z,18.91
2022-10-26T12:01:10.652Z,18.91
2022-10-26T12:03:50.012Z,18.91
2022-10-26T12:06:27.283Z,18.94
2022-10-26T12:09:13.035Z,18.97
2022-10-26T12:12:37.467Z,19.03
2022-10-26T12:16:02.163Z,19.03
2022-10-26T12:18:57.440Z,19.04
2022-10-26T12:21:33.906Z,19.06
2022-10-26T12:24:23.690Z,19.13
2022-10-26T12:27:05.893Z,19.18
2022-10-26T12:29:38.059Z,19.27
2022-10-26T12:32:33.353Z,19.44
2022-10-26T12:35:24.618Z,19.57
2022-10-26T12:37:52.194Z,19.60
2022-10-26T12:40:34.334Z,19.66
2022-10-26T12:43:16.581Z,19.76
2022-10-26T12:45:47.492Z,19.86
2022-10-26T12:55:47.009Z,20.10
2022-10-26T12:58:45.014Z,20.20
2022-10-26T13:01:57.255Z,20.23
2022-10-26T13:05:28.492Z,20.14
2022-10-26T13:08:13.992Z,20.12
2022-10-26T13:11:15.538Z,20.34
2022-10-26T13:13:43.503Z,20.52
2022-10-26T13:16:16.569Z,20.64
2022-10-26T13:18:49.383Z,20.68
2022-10-26T13:21:19.605Z,20.68
2022-10-26T13:24:14.652Z,20.69
2022-10-26T13:27:04.726Z,20.67
2022-10-26T13:29:55.798Z,20.65
2022-10-26T13:32:23.064Z,20.64
2022-10-26T13:34:51.099Z,20.72
2022-10-26T13:37:26.241Z,20.81
2022-10-26T13:39:56.106Z,20.80
2022-10-26T13:43:04.357Z,20.81
2022-10-26T13:45:55.933Z,20.82
2022-10-26T13:48:47.063Z,20.84
2022-10-26T13:51:26.002Z,20.88
2022-10-26T13:54:35.500Z,20.87
2022-10-26T13:57:32.500Z,20.85
2022-10-26T14:00:08.443Z,20.90
2022-10-26T14:02:43.689Z,20.91
2022-10-26T14:05:15.790Z,20.85
2022-10-26T14:07:59.887Z,20.90
2022-10-26T14:10:42.293Z,20.86
2022-10-26T14:13:18.151Z,20.85
2022-10-26T14:15:47.320Z,20.80
2022-10-26T14:18:31.567Z,20.77
2022-10-26T14:21:16.143Z,20.77
2022-10-26T14:24:35.802Z,20.73
2022-10-26T14:27:25.392Z,20.64
2022-10-26T14:30:22.055Z,20.56
2022-10-26T14:32:42.523Z,20.53
2022-10-26T14:35:15.007Z,20.45
2022-10-26T14:38:02.953Z,20.39
2022-10-26T14:40:35.853Z,20.37
2022-10-26T14:43:05.880Z,20.36
2022-10-26T14:45:53.825Z,20.35
2022-10-26T14:48:31.669Z,20.35
2022-10-26T14:51:10.755Z,20.36
2022-10-26T14:53:49.431Z,20.36
2022-10-26T14:56:40.366Z,20.38
2022-10-26T14:59:37.598Z,20.34
2022-10-26T15:02:31.378Z,20.31
2022-10-26T15:05:19.567Z,20.26
2022-10-26T15:07:47.301Z,20.23
2022-10-26T15:10:36.230Z,20.19
2022-10-26T15:13:26.212Z,20.13
2022-10-26T15:15:58.336Z,20.12
2022-10-26T15:18:35.021Z,20.15
2022-10-26T15:21:03.004Z,20.04
2022-10-26T15:23:31.251Z,19.94
2022-10-26T15:26:03.637Z,19.85
2022-10-26T15:28:44.399Z,19.77
2022-10-26T15:31:11.433Z,19.66
2022-10-26T15:34:03.521Z,19.59
2022-10-26T15:36:33.461Z,19.53
2022-10-26T15:39:01.100Z,19.50
2022-10-26T15:41:41.487Z,19.47
2022-10-26T15:44:19.013Z,19.44
2022-10-26T15:46:46.457Z,19.45
2022-10-26T15:49:21.082Z,19.44
2022-10-26T15:51:49.478Z,19.40
2022-10-26T15:54:16.681Z,19.33
2022-10-26T15:56:44.738Z,19.26
2022-10-26T15:59:20.518Z,19.17
2022-10-26T16:01:47.843Z,19.09
2022-10-26T16:04:15.150Z,19.03
2022-10-26T16:06:43.184Z,18.95
2022-10-26T16:09:18.401Z,18.87
2022-10-26T16:11:46.011Z,18.81
2022-10-26T16:14:13.293Z,18.75
2022-10-26T16:16:41.277Z,18.70
2022-10-26T16:19:30.249Z,18.62
2022-10-26T16:21:58.152Z,18.55
2022-10-26T16:24:26.942Z,18.50
2022-10-26T16:26:54.948Z,18.44
2022-10-26T16:29:23.129Z,18.40
2022-10-26T16:31:50.590Z,18.33
2022-10-26T16:34:17.949Z,18.27
2022-10-26T16:36:45.284Z,18.21
2022-10-26T16:39:13.282Z,18.14
2022-10-26T16:41:40.474Z,18.09
2022-10-26T16:44:07.614Z,18.04
2022-10-26T16:46:34.735Z,17.98
2022-10-26T16:49:01.897Z,17.92
2022-10-26T16:51:29.374Z,17.86
2022-10-26T16:53:57.893Z,17.81
2022-10-26T16:56:30.059Z,17.77
2022-10-26T16:58:57.616Z,17.74
2022-10-26T17:01:25.828Z,17.72
2022-10-26T17:03:53.647Z,17.70
2022-10-26T17:06:22.421Z,17.66
2022-10-26T17:08:49.677Z,17.62
2022-10-26T17:11:20.936Z,17.57
2022-10-26T17:13:54.270Z,17.54
2022-10-26T17:16:24.395Z,17.49
2022-10-26T17:18:53.618Z,17.46
2022-10-26T17:21:34.568Z,17.43
2022-10-26T17:24:02.960Z,17.39
2022-10-26T17:26:30.341Z,17.37
2022-10-26T17:28:58.356Z,17.32
2022-10-26T17:31:26.691Z,17.31
2022-10-26T17:33:55.820Z,17.27
2022-10-26T17:36:25.636Z,17.23
2022-10-26T17:38:55.453Z,17.19
2022-10-26T17:41:24.510Z,17.16
2022-10-26T17:43:51.847Z,17.12
2022-10-26T17:46:24.229Z,17.09
2022-10-26T17:49:00.937Z,17.06
2022-10-26T17:51:30.678Z,17.03
2022-10-26T17:53:59.161Z,16.99
2022-10-26T17:56:31.394Z,16.96
2022-10-26T17:59:03.790Z,16.94
2022-10-26T18:01:34.394Z,16.90
2022-10-26T18:04:01.871Z,16.90
2022-10-26T18:06:29.394Z,16.89
2022-10-26T18:08:59.797Z,16.88
2022-10-26T18:11:28.408Z,16.84
2022-10-26T18:13:57.544Z,16.79
2022-10-26T18:16:27.671Z,16.77
2022-10-26T18:19:04.724Z,16.73
2022-10-26T18:21:37.504Z,16.69
2022-10-26T18:24:07.445Z,16.65
2022-10-26T18:26:35.954Z,16.62
2022-10-26T18:29:04.918Z,16.59
2022-10-26T18:31:37.614Z,16.58
2022-10-26T18:34:06.842Z,16.54
2022-10-26T18:36:34.417Z,16.53
2022-10-26T18:39:01.834Z,16.49
2022-10-26T18:41:29.461Z,16.51
2022-10-26T18:43:58.968Z,16.45
2022-10-26T18:46:31.247Z,16.40
2022-10-26T18:49:00.866Z,16.37
2022-10-26T18:51:34.770Z,16.34
2022-10-26T18:54:02.950Z,16.30
2022-10-26T18:56:30.780Z,16.26
2022-10-26T18:59:00.472Z,16.23
2022-10-26T19:01:35.227Z,16.19
2022-10-26T19:04:10.417Z,16.17
2022-10-26T19:06:47.778Z,16.15
2022-10-26T19:09:17.784Z,16.10
2022-10-26T19:11:45.729Z,16.05
2022-10-26T19:14:13.921Z,16.04
2022-10-26T19:16:46.466Z,16.01
2022-10-26T19:19:17.252Z,15.99
2022-10-26T19:21:48.004Z,15.91
2022-10-26T19:24:21.275Z,15.91
2022-10-26T19:26:51.096Z,15.89
2022-10-26T19:29:20.416Z,15.87
2022-10-26T19:31:52.470Z,15.84
2022-10-26T19:34:20.187Z,15.80
2022-10-26T19:36:47.637Z,15.78
2022-10-26T19:39:17.735Z,15.75
2022-10-26T19:41:46.459Z,15.71
2022-10-26T19:44:15.221Z,15.69
2022-10-26T19:46:43.555Z,15.66
2022-10-26T19:49:12.677Z,15.65
2022-10-26T19:51:40.069Z,15.62
2022-10-26T19:54:07.640Z,15.59
2022-10-26T19:56:37.141Z,15.57
2022-10-26T19:59:06.606Z,15.54
2022-10-26T20:01:34.058Z,15.53
2022-10-26T20:04:02.687Z,15.50
2022-10-26T20:06:31.010Z,15.47
2022-10-26T20:08:59.809Z,15.45
2022-10-26T20:11:27.078Z,15.44
2022-10-26T20:13:55.878Z,15.42
2022-10-26T20:16:23.371Z,15.39
2022-10-26T20:18:50.644Z,15.36
2022-10-26T20:21:18.029Z,15.36
2022-10-26T20:23:45.702Z,15.33
2022-10-26T20:26:19.260Z,15.32
2022-10-26T20:28:52.358Z,15.32
2022-10-26T20:31:19.979Z,15.37
2022-10-26T20:33:52.573Z,15.38
2022-10-26T20:36:20.949Z,15.42
2022-10-26T20:38:48.906Z,15.46
2022-10-26T20:41:17.606Z,15.46
2022-10-26T20:43:45.309Z,15.44
2022-10-26T20:46:27.607Z,15.44
2022-10-26T20:48:55.762Z,15.47
2022-10-26T20:52:25.749Z,15.51
2022-10-26T20:55:15.042Z,15.54
2022-10-26T20:57:55.444Z,15.56
2022-10-26T21:00:23.059Z,15.56
2022-10-26T21:02:50.714Z,15.59
2022-10-26T21:05:20.921Z,15.58
2022-10-26T21:07:49.335Z,15.55
2022-10-26T21:10:16.643Z,15.50
2022-10-26T21:12:45.366Z,15.53
2022-10-26T21:15:12.530Z,15.51
2022-10-26T21:17:39.664Z,15.48
2022-10-26T21:20:07.604Z,15.45
2022-10-26T21:22:35.551Z,15.38
2022-10-26T21:25:02.847Z,15.39
2022-10-26T21:27:29.982Z,15.37
2022-10-26T21:29:57.301Z,15.34
2022-10-26T21:32:24.458Z,15.33
2022-10-26T21:34:51.642Z,15.31
2022-10-26T21:37:18.882Z,15.29
2022-10-26T21:39:46.335Z,15.28
2022-10-26T21:42:13.693Z,15.26
2022-10-26T21:44:41.773Z,15.23
2022-10-26T21:47:10.654Z,15.21
2022-10-26T21:49:38.846Z,15.20
2022-10-26T21:52:08.030Z,15.20
2022-10-26T21:54:35.317Z,15.19
2022-10-26T21:57:02.535Z,15.22
2022-10-26T21:59:29.687Z,15.22
2022-10-26T22:01:56.980Z,15.24
2022-10-26T22:04:24.291Z,15.27
2022-10-26T22:06:51.477Z,15.30
2022-10-26T22:09:18.677Z,15.32
2022-10-26T22:11:45.932Z,15.32
2022-10-26T22:14:16.038Z,15.34
2022-10-26T22:16:43.368Z,15.37
2022-10-26T22:19:11.092Z,15.41
2022-10-26T22:21:41.742Z,15.43
2022-10-26T22:24:09.890Z,15.44
2022-10-26T22:26:38.573Z,15.49
2022-10-26T22:29:06.171Z,15.52
2022-10-26T22:31:39.996Z,15.51
2022-10-26T22:34:19.337Z,15.56
2022-10-26T22:36:46.708Z,15.59
2022-10-26T22:39:14.217Z,15.60
2022-10-26T22:41:41.683Z,15.63
2022-10-26T22:44:09.071Z,15.68
2022-10-26T22:46:36.277Z,15.67
2022-10-26T22:49:03.849Z,15.67
2022-10-26T22:51:35.523Z,15.66
2022-10-26T22:54:05.359Z,15.66
2022-10-26T22:56:36.133Z,15.67
2022-10-26T22:59:05.558Z,15.65
2022-10-26T23:01:39.083Z,15.65
2022-10-26T23:04:06.411Z,15.61
2022-10-26T23:06:34.275Z,15.58
2022-10-26T23:09:01.654Z,15.55
2022-10-26T23:11:29.792Z,15.50
2022-10-26T23:14:03.122Z,15.46
2022-10-26T23:16:31.656Z,15.45
2022-10-26T23:18:59.854Z,15.40
2022-10-26T23:21:28.992Z,15.36
2022-10-26T23:23:56.993Z,15.33
2022-10-26T23:26:24.348Z,15.27
2022-10-26T23:28:51.733Z,15.22
2022-10-26T23:31:26.543Z,15.17
2022-10-26T23:33:56.870Z,15.10
2022-10-26T23:36:24.907Z,15.02
2022-10-26T23:38:52.339Z,14.95
2022-10-26T23:41:19.573Z,14.88
2022-10-26T23:43:46.713Z,14.82
2022-10-26T23:46:13.966Z,14.76
2022-10-26T23:48:41.294Z,14.70
2022-10-26T23:51:08.556Z,14.63
2022-10-26T23:53:36.020Z,14.59
2022-10-26T23:56:03.221Z,14.53
2022-10-26T23:58:31.049Z,14.48
